createdAt,value
2022-09-22T00:01:13.737Z,100447.23
2022-09-22T00:03:42.822Z,100444.06
2022-09-22T00:06:11.309Z,100441.43
2022-09-22T00:08:41.084Z,100440.04
2022-09-22T00:11:12.436Z,100441.61
2022-09-22T00:13:39.443Z,100443.56
2022-09-22T00:16:10.483Z,100445.69
2022-09-22T00:18:38.570Z,100445.71
2022-09-22T00:21:07.564Z,100448.02
2022-09-22T00:23:34.516Z,100449.27
2022-09-22T00:26:07.716Z,100450.23
2022-09-22T00:28:34.667Z,100450.79
2022-09-22T00:31:10.710Z,100450.84
2022-09-22T00:33:40.200Z,100450.20
2022-09-22T00:36:06.991Z,100446.21
2022-09-22T00:38:33.942Z,100452.80
2022-09-22T00:41:01.413Z,100460.58
2022-09-22T00:43:29.897Z,100460.29
2022-09-22T00:46:00.539Z,100461.61
2022-09-22T00:48:28.414Z,100464.33
2022-09-22T00:50:55.775Z,100466.73
2022-09-22T00:53:22.729Z,100468.45
2022-09-22T00:55:56.030Z,100468.55
2022-09-22T00:58:28.826Z,100467.38
2022-09-22T01:00:57.548Z,100465.66
2022-09-22T01:03:29.699Z,100464.45
2022-09-22T01:05:58.388Z,100463.59
2022-09-22T01:08:25.861Z,100469.05
2022-09-22T01:10:54.246Z,100466.45
2022-09-22T01:13:25.865Z,100467.85
2022-09-22T01:16:29.585Z,100474.18
2022-09-22T01:19:22.799Z,100471.61
2022-09-22T01:21:53.098Z,100468.11
2022-09-22T01:24:26.532Z,100470.84
2022-09-22T01:27:06.897Z,100474.75
2022-09-22T01:30:04.890Z,100473.92
2022-09-22T01:32:34.703Z,100474.64
2022-09-22T01:35:06.471Z,100475.00
2022-09-22T01:37:43.767Z,100474.48
2022-09-22T01:40:19.622Z,100476.60
2022-09-22T01:42:52.600Z,100470.86
2022-09-22T01:45:21.848Z,100470.56
2022-09-22T01:47:54.666Z,100473.23
2022-09-22T01:50:29.760Z,100472.38
2022-09-22T01:52:58.862Z,100468.42
2022-09-22T01:55:35.395Z,100470.39
2022-09-22T01:58:05.871Z,100469.70
2022-09-22T02:00:35.278Z,100464.49
2022-09-22T02:03:10.730Z,100466.99
2022-09-22T02:05:45.310Z,100469.63
2022-09-22T02:08:22.162Z,100465.43
2022-09-22T02:10:48.893Z,100469.45
2022-09-22T02:13:15.850Z,100466.83
2022-09-22T02:16:01.983Z,100467.20
2022-09-22T02:18:34.243Z,100467.02
2022-09-22T02:21:01.500Z,100469.80
2022-09-22T02:23:29.076Z,100472.42
2022-09-22T02:25:56.427Z,100471.90
2022-09-22T02:28:23.588Z,100472.63
2022-09-22T02:31:17.650Z,100467.40
2022-09-22T02:33:39.409Z,100470.24
2022-09-22T02:36:32.471Z,100469.73
2022-09-22T02:39:01.572Z,100468.88
2022-09-22T02:41:50.027Z,100466.63
2022-09-22T02:44:24.077Z,100466.83
2022-09-22T02:47:01.385Z,100475.57
2022-09-22T02:49:29.612Z,100485.00
2022-09-22T02:51:56.579Z,100482.19
2022-09-22T02:54:25.672Z,100483.09
2022-09-22T02:56:53.945Z,100483.30
2022-09-22T02:59:20.689Z,100484.71
2022-09-22T03:01:48.320Z,100481.40
2022-09-22T03:04:15.713Z,100480.00
2022-09-22T03:06:42.556Z,100476.50
2022-09-22T03:09:10.222Z,100475.96
2022-09-22T03:11:37.680Z,100476.13
2022-09-22T03:14:04.319Z,100475.25
2022-09-22T03:16:31.471Z,100475.95
2022-09-22T03:18:58.673Z,100473.98
2022-09-22T03:21:26.700Z,100476.25
2022-09-22T03:23:53.954Z,100479.02
2022-09-22T03:26:21.414Z,100475.50
2022-09-22T03:28:48.361Z,100474.58
2022-09-22T03:31:15.453Z,100471.23
2022-09-22T03:33:42.778Z,100471.20
2022-09-22T03:36:09.832Z,100468.88
2022-09-22T03:38:36.686Z,100472.85
2022-09-22T03:41:04.655Z,100474.58
2022-09-22T03:43:31.607Z,100475.77
2022-09-22T03:46:00.190Z,100476.45
2022-09-22T03:48:28.575Z,100479.97
2022-09-22T03:50:55.822Z,100474.22
2022-09-22T03:53:23.228Z,100473.19
2022-09-22T03:55:50.648Z,100471.60
2022-09-22T03:58:20.257Z,100468.10
2022-09-22T04:00:48.435Z,100469.85
2022-09-22T04:03:16.918Z,100470.90
2022-09-22T04:05:52.363Z,100470.35
2022-09-22T04:08:19.619Z,100466.48
2022-09-22T04:10:46.463Z,100466.08
2022-09-22T04:13:15.149Z,100464.84
2022-09-22T04:15:42.307Z,100471.27
2022-09-22T04:18:09.869Z,100470.36
2022-09-22T04:20:38.840Z,100464.89
2022-09-22T04:23:05.658Z,100466.23
2022-09-22T04:25:32.351Z,100464.92
2022-09-22T04:28:02.302Z,100460.66
2022-09-22T04:30:33.171Z,100460.61
2022-09-22T04:33:00.666Z,100462.48
2022-09-22T04:35:27.921Z,100464.34
2022-09-22T04:37:55.552Z,100465.31
2022-09-22T04:40:22.873Z,100462.09
2022-09-22T04:42:50.809Z,100464.46
2022-09-22T04:45:18.371Z,100462.59
2022-09-22T04:47:46.853Z,100462.48
2022-09-22T04:50:14.117Z,100461.98
2022-09-22T04:52:46.817Z,100464.30
2022-09-22T04:55:15.295Z,100460.98
2022-09-22T04:57:56.482Z,100462.05
2022-09-22T05:00:25.954Z,100461.13
2022-09-22T05:02:53.201Z,100462.88
2022-09-22T05:05:20.108Z,100460.91
2022-09-22T05:07:48.513Z,100462.80
2022-09-22T05:10:19.501Z,100459.59
2022-09-22T05:12:46.196Z,100461.35
2022-09-22T05:15:16.535Z,100461.67
2022-09-22T05:17:49.221Z,100463.94
2022-09-22T05:20:17.715Z,100461.09
2022-09-22T05:22:44.665Z,100461.52
2022-09-22T05:25:13.573Z,100460.73
2022-09-22T05:27:47.905Z,100465.85
2022-09-22T05:30:16.696Z,100462.89
2022-09-22T05:32:45.700Z,100462.61
2022-09-22T05:35:13.889Z,100463.52
2022-09-22T05:37:42.481Z,100466.61
2022-09-22T05:40:10.487Z,100466.77
2022-09-22T05:42:51.237Z,100466.06
2022-09-22T05:45:19.933Z,100462.68
2022-09-22T05:47:46.711Z,100462.47
2022-09-22T05:50:14.831Z,100465.19
2022-09-22T05:52:41.782Z,100464.38
2022-09-22T05:55:11.540Z,100462.11
2022-09-22T05:57:39.242Z,100456.88
2022-09-22T06:00:07.488Z,100458.34
2022-09-22T06:02:36.205Z,100458.20
2022-09-22T06:05:03.455Z,100459.89
2022-09-22T06:07:33.075Z,100461.08
2022-09-22T06:10:00.347Z,100465.95
2022-09-22T06:12:27.703Z,100470.61
2022-09-22T06:14:56.503Z,100471.18
2022-09-22T06:17:24.369Z,100474.20
2022-09-22T06:19:51.729Z,100474.55
2022-09-22T06:22:19.085Z,100474.20
2022-09-22T06:24:46.233Z,100477.87
2022-09-22T06:27:14.409Z,100473.08
2022-09-22T06:29:41.054Z,100476.38
2022-09-22T06:32:09.380Z,100477.52
2022-09-22T06:34:38.040Z,100478.91
2022-09-22T06:37:08.243Z,100480.58
2022-09-22T06:39:37.829Z,100479.25
2022-09-22T06:42:06.541Z,100481.54
2022-09-22T06:44:33.281Z,100480.38
2022-09-22T06:47:04.851Z,100475.13
2022-09-22T06:49:31.682Z,100477.59
2022-09-22T06:51:58.423Z,100474.73
2022-09-22T06:54:25.990Z,100478.50
2022-09-22T06:56:53.548Z,100482.17
2022-09-22T06:59:20.371Z,100486.58
2022-09-22T07:01:47.629Z,100487.03
2022-09-22T07:04:14.718Z,100486.66
2022-09-22T07:06:42.900Z,100481.00
2022-09-22T07:09:11.999Z,100475.07
2022-09-22T07:11:40.682Z,100467.27
2022-09-22T07:14:08.127Z,100466.41
2022-09-22T07:16:35.752Z,100466.45
2022-09-22T07:19:08.723Z,100465.64
2022-09-22T07:21:37.314Z,100465.84
2022-09-22T07:24:07.707Z,100459.33
2022-09-22T07:26:35.430Z,100457.98
2022-09-22T07:29:08.057Z,100458.29
2022-09-22T07:31:36.334Z,100459.08
2022-09-22T07:34:03.358Z,100454.77
2022-09-22T07:36:31.947Z,100451.63
2022-09-22T07:39:07.158Z,100450.92
2022-09-22T07:41:42.547Z,100444.71
2022-09-22T07:44:30.397Z,100443.84
2022-09-22T07:46:58.264Z,100445.12
2022-09-22T07:49:25.942Z,100444.88
2022-09-22T07:51:56.986Z,100437.79
2022-09-22T07:54:24.964Z,100431.05
2022-09-22T07:56:57.545Z,100434.69
2022-09-22T07:59:24.597Z,100434.99
2022-09-22T08:01:51.766Z,100437.17
2022-09-22T08:04:22.263Z,100435.98
2022-09-22T08:06:55.512Z,100435.63
2022-09-22T08:09:23.980Z,100434.05
2022-09-22T08:11:52.467Z,100425.52
2022-09-22T08:14:21.975Z,100417.92
2022-09-22T08:16:51.057Z,100421.11
2022-09-22T08:19:17.936Z,100420.67
2022-09-22T08:21:49.178Z,100422.64
2022-09-22T08:24:21.755Z,100424.56
2022-09-22T08:26:52.776Z,100423.22
2022-09-22T08:29:20.641Z,100423.16
2022-09-22T08:31:48.806Z,100429.80
2022-09-22T08:34:16.709Z,100425.02
2022-09-22T08:36:46.682Z,100422.38
2022-09-22T08:39:14.240Z,100413.05
2022-09-22T08:41:59.619Z,100407.31
2022-09-22T08:44:29.391Z,100401.77
2022-09-22T08:46:58.874Z,100403.45
2022-09-22T08:49:56.951Z,100403.58
2022-09-22T08:52:38.244Z,100397.86
2022-09-22T08:55:10.920Z,100387.74
2022-09-22T08:57:56.463Z,100382.83
2022-09-22T09:00:24.092Z,100383.52
2022-09-22T09:03:00.247Z,100378.06
2022-09-22T09:05:40.879Z,100374.67
2022-09-22T09:08:19.399Z,100376.60
2022-09-22T09:10:56.896Z,100380.09
2022-09-22T09:13:31.936Z,100379.20
2022-09-22T09:16:19.272Z,100367.02
2022-09-22T09:18:56.551Z,100366.87
2022-09-22T09:21:23.498Z,100368.92
2022-09-22T09:26:40.950Z,100373.94
2022-09-22T09:29:07.960Z,100369.44
2022-09-22T09:31:41.098Z,100369.67
2022-09-22T09:34:11.684Z,100370.52
2022-09-22T09:36:40.642Z,100370.34
2022-09-22T09:39:17.913Z,100371.25
2022-09-22T09:41:49.573Z,100380.21
2022-09-22T09:44:20.463Z,100384.91
2022-09-22T09:47:05.288Z,100390.08
2022-09-22T09:49:32.955Z,100387.52
2022-09-22T09:52:01.235Z,100389.11
2022-09-22T09:54:28.371Z,100388.65
2022-09-22T09:57:10.399Z,100392.46
2022-09-22T09:59:58.030Z,100391.25
2022-09-22T10:02:29.278Z,100391.84
2022-09-22T10:05:01.135Z,100385.60
2022-09-22T10:10:23.473Z,100389.27
2022-09-22T10:12:52.172Z,100393.09
2022-09-22T10:15:24.255Z,100397.28
2022-09-22T10:17:53.042Z,100388.77
2022-09-22T10:20:25.964Z,100380.60
2022-09-22T10:22:54.511Z,100386.77
2022-09-22T10:25:25.353Z,100392.73
2022-09-22T10:28:15.234Z,100396.86
2022-09-22T10:30:44.677Z,100390.73
2022-09-22T10:33:19.819Z,100380.31
2022-09-22T10:35:54.094Z,100373.45
2022-09-22T10:38:24.732Z,100367.83
2022-09-22T10:41:07.404Z,100370.45
2022-09-22T10:43:45.345Z,100370.99
2022-09-22T10:46:37.946Z,100370.88
2022-09-22T10:50:02.791Z,100360.41
2022-09-22T10:52:42.432Z,100354.28
2022-09-22T10:55:30.471Z,100350.39
2022-09-22T10:58:09.397Z,100345.17
2022-09-22T11:00:39.927Z,100339.95
2022-09-22T11:03:08.213Z,100339.44
2022-09-22T11:06:23.945Z,100343.92
2022-09-22T11:09:23.192Z,100339.75
2022-09-22T11:12:16.254Z,100336.01
2022-09-22T11:14:49.541Z,100331.41
2022-09-22T11:17:32.056Z,100333.77
2022-09-22T11:20:26.954Z,100337.86
2022-09-22T11:23:03.421Z,100338.06
2022-09-22T11:25:42.656Z,100340.98
2022-09-22T11:28:47.185Z,100343.09
2022-09-22T11:31:31.440Z,100347.58
2022-09-22T11:34:22.656Z,100350.40
2022-09-22T11:37:27.293Z,100356.84
2022-09-22T11:40:01.271Z,100358.46
2022-09-22T11:42:38.494Z,100358.71
2022-09-22T11:45:43.648Z,100345.88
2022-09-22T11:48:42.845Z,100341.98
2022-09-22T11:51:33.957Z,100338.92
2022-09-22T11:54:04.419Z,100337.75
2022-09-22T11:57:06.981Z,100331.30
2022-09-22T11:59:39.765Z,100329.03
2022-09-22T12:02:32.260Z,100328.36
2022-09-22T12:05:02.346Z,100329.58
2022-09-22T12:07:35.151Z,100332.20
2022-09-22T12:10:12.728Z,100333.37
2022-09-22T12:12:43.359Z,100332.88
2022-09-22T12:15:21.902Z,100330.52
2022-09-22T12:17:54.879Z,100328.93
2022-09-22T12:20:35.045Z,100329.96
2022-09-22T12:23:08.444Z,100336.69
2022-09-22T12:25:48.994Z,100337.11
2022-09-22T12:28:25.594Z,100342.30
2022-09-22T12:31:04.533Z,100345.02
2022-09-22T12:33:33.273Z,100348.70
2022-09-22T12:36:00.986Z,100353.64
2022-09-22T12:38:30.090Z,100355.11
2022-09-22T12:40:59.300Z,100347.55
2022-09-22T12:43:27.366Z,100348.69
2022-09-22T12:45:55.267Z,100344.92
2022-09-22T12:48:30.588Z,100340.71
2022-09-22T12:51:25.908Z,100335.89
2022-09-22T12:54:22.352Z,100335.73
2022-09-22T12:59:37.552Z,100334.55
2022-09-22T13:02:16.860Z,100335.02
2022-09-22T13:04:56.655Z,100336.09
2022-09-22T13:07:40.701Z,100332.45
2022-09-22T13:10:24.599Z,100335.59
2022-09-22T13:13:00.424Z,100337.27
2022-09-22T13:15:39.551Z,100337.80
2022-09-22T13:18:29.068Z,100334.92
2022-09-22T13:20:57.411Z,100335.48
2022-09-22T13:23:25.885Z,100334.52
2022-09-22T13:25:54.996Z,100335.77
2022-09-22T13:28:23.818Z,100334.47
2022-09-22T13:31:16.416Z,100329.67
2022-09-22T13:33:43.585Z,100326.52
2022-09-22T13:36:18.731Z,100331.16
2022-09-22T13:38:53.970Z,100331.58
2022-09-22T13:41:23.950Z,100327.98
2022-09-22T13:43:56.361Z,100329.41
2022-09-22T13:46:47.678Z,100331.98
2022-09-22T13:49:34.183Z,100333.39
2022-09-22T13:52:04.754Z,100336.16
2022-09-22T13:54:33.402Z,100340.55
2022-09-22T13:57:01.015Z,100342.34
2022-09-22T13:59:34.487Z,100342.65
2022-09-22T14:02:11.290Z,100341.08
2022-09-22T14:04:49.778Z,100342.17
2022-09-22T14:07:16.433Z,100340.10
2022-09-22T14:09:43.466Z,100340.47
2022-09-22T14:12:11.336Z,100339.70
2022-09-22T14:14:39.928Z,100336.73
2022-09-22T14:17:19.262Z,100341.06
2022-09-22T14:19:54.711Z,100352.71
2022-09-22T14:22:24.239Z,100357.52
2022-09-22T14:24:55.473Z,100361.65
2022-09-22T14:27:31.939Z,100364.05
2022-09-22T14:29:58.685Z,100365.67
2022-09-22T14:32:32.909Z,100364.55
2022-09-22T14:35:02.479Z,100360.75
2022-09-22T14:37:38.759Z,100366.98
2022-09-22T14:40:13.813Z,100369.67
2022-09-22T14:42:41.689Z,100369.44
2022-09-22T14:45:08.943Z,100372.00
2022-09-22T14:47:40.032Z,100372.92
2022-09-22T14:50:19.406Z,100373.15
2022-09-22T14:52:55.606Z,100375.76
2022-09-22T14:55:33.933Z,100382.99
2022-09-22T14:58:29.051Z,100384.06
2022-09-22T15:01:18.046Z,100381.70
2022-09-22T15:04:02.275Z,100383.14
2022-09-22T15:06:39.366Z,100383.14
2022-09-22T15:09:07.897Z,100383.64
2022-09-22T15:11:46.719Z,100383.05
2022-09-22T15:14:32.266Z,100379.45
2022-09-22T15:17:22.671Z,100383.27
2022-09-22T15:19:56.535Z,100383.90
2022-09-22T15:22:23.605Z,100391.41
2022-09-22T15:24:50.593Z,100395.16
2022-09-22T15:27:18.990Z,100397.16
2022-09-22T15:29:48.078Z,100398.96
2022-09-22T15:32:16.051Z,100400.73
2022-09-22T15:34:44.237Z,100403.19
2022-09-22T15:37:20.720Z,100407.09
2022-09-22T15:39:47.671Z,100410.13
2022-09-22T15:42:15.130Z,100408.86
2022-09-22T15:44:43.444Z,100404.93
2022-09-22T15:47:13.851Z,100408.09
2022-09-22T15:49:42.234Z,100411.88
2022-09-22T15:52:11.053Z,100411.64
2022-09-22T15:54:38.387Z,100413.25
2022-09-22T15:57:06.007Z,100414.48
2022-09-22T15:59:33.209Z,100418.19
2022-09-22T16:02:00.670Z,100415.45
2022-09-22T16:04:31.818Z,100416.59
2022-09-22T16:06:59.991Z,100412.98
2022-09-22T16:09:27.756Z,100420.45
2022-09-22T16:11:55.321Z,100424.16
2022-09-22T16:14:24.830Z,100427.70
2022-09-22T16:16:52.188Z,100426.80
2022-09-22T16:19:19.854Z,100427.55
2022-09-22T16:21:51.312Z,100429.81
2022-09-22T16:24:18.466Z,100427.52
2022-09-22T16:26:45.617Z,100429.71
2022-09-22T16:29:12.571Z,100433.80
2022-09-22T16:31:39.241Z,100435.28
2022-09-22T16:34:07.352Z,100438.55
2022-09-22T16:36:35.469Z,100443.58
2022-09-22T16:39:02.975Z,100448.77
2022-09-22T16:41:31.582Z,100448.08
2022-09-22T16:43:58.962Z,100448.98
2022-09-22T16:46:26.120Z,100451.08
2022-09-22T16:48:59.665Z,100453.85
2022-09-22T16:51:27.204Z,100451.74
2022-09-22T16:53:54.360Z,100452.65
2022-09-22T16:56:23.109Z,100449.95
2022-09-22T16:58:50.207Z,100455.63
2022-09-22T17:01:19.786Z,100459.40
2022-09-22T17:03:49.132Z,100455.33
2022-09-22T17:06:16.800Z,100458.98
2022-09-22T17:08:45.395Z,100456.09
2022-09-22T17:11:13.374Z,100458.17
2022-09-22T17:13:42.826Z,100460.33
2022-09-22T17:16:24.406Z,100464.02
2022-09-22T17:18:52.365Z,100467.20
2022-09-22T17:21:22.800Z,100469.05
2022-09-22T17:23:51.899Z,100472.21
2022-09-22T17:26:19.777Z,100475.22
2022-09-22T17:28:47.038Z,100475.85
2022-09-22T17:31:14.489Z,100477.95
2022-09-22T17:33:47.886Z,100482.20
2022-09-22T17:36:21.934Z,100484.52
2022-09-22T17:38:52.762Z,100487.30
2022-09-22T17:41:24.840Z,100487.30
2022-09-22T17:43:55.174Z,100490.54
2022-09-22T17:46:24.565Z,100491.48
2022-09-22T17:49:09.961Z,100493.60
2022-09-22T17:52:00.464Z,100493.72
2022-09-22T17:54:50.662Z,100491.23
2022-09-22T17:57:23.659Z,100490.48
2022-09-22T17:59:51.227Z,100493.55
2022-09-22T18:02:19.068Z,100495.38
2022-09-22T18:04:46.766Z,100493.36
2022-09-22T18:07:17.507Z,100489.80
2022-09-22T18:09:46.708Z,100487.64
2022-09-22T18:12:16.013Z,100485.65
2022-09-22T18:14:46.653Z,100488.81
2022-09-22T18:17:14.588Z,100484.62
2022-09-22T18:19:43.988Z,100484.55
2022-09-22T18:22:20.619Z,100483.55
2022-09-22T18:24:50.942Z,100485.52
2022-09-22T18:27:21.552Z,100483.20
2022-09-22T18:29:53.036Z,100490.30
2022-09-22T18:32:20.809Z,100491.79
2022-09-22T18:34:50.734Z,100493.56
2022-09-22T18:37:17.854Z,100490.73
2022-09-22T18:39:45.360Z,100491.23
2022-09-22T18:42:12.727Z,100490.73
2022-09-22T18:44:40.907Z,100493.39
2022-09-22T18:47:12.428Z,100490.98
2022-09-22T18:49:40.503Z,100494.50
2022-09-22T18:52:11.861Z,100494.27
2022-09-22T18:54:42.555Z,100490.41
2022-09-22T18:57:13.708Z,100491.42
2022-09-22T18:59:40.871Z,100494.16
2022-09-22T19:02:11.792Z,100492.23
2022-09-22T19:04:40.202Z,100493.27
2022-09-22T19:07:26.822Z,100491.69
2022-09-22T19:09:54.492Z,100489.70
2022-09-22T19:12:21.241Z,100488.78
2022-09-22T19:14:49.635Z,100491.98
2022-09-22T19:17:19.357Z,100488.77
2022-09-22T19:19:48.452Z,100487.63
2022-09-22T19:22:16.422Z,100490.05
2022-09-22T19:24:46.848Z,100491.12
2022-09-22T19:27:15.235Z,100491.86
2022-09-22T19:29:42.284Z,100494.19
2022-09-22T19:32:09.750Z,100494.55
2022-09-22T19:34:37.417Z,100494.85
2022-09-22T19:37:04.879Z,100497.85
2022-09-22T19:39:32.344Z,100497.44
2022-09-22T19:42:02.576Z,100499.48
2022-09-22T19:44:30.163Z,100501.63
2022-09-22T19:46:58.322Z,100499.92
2022-09-22T19:49:25.065Z,100503.33
2022-09-22T19:51:53.037Z,100500.02
2022-09-22T19:54:20.507Z,100500.06
2022-09-22T19:56:47.671Z,100498.42
2022-09-22T19:59:19.237Z,100499.45
2022-09-22T20:01:47.497Z,100505.91
2022-09-22T20:04:18.896Z,100511.23
2022-09-22T20:06:45.849Z,100513.59
2022-09-22T20:09:12.901Z,100512.45
2022-09-22T20:11:45.593Z,100512.06
2022-09-22T20:14:23.092Z,100512.86
2022-09-22T20:16:54.246Z,100515.22
2022-09-22T20:19:21.900Z,100518.89
2022-09-22T20:21:51.206Z,100518.06
2022-09-22T20:24:19.406Z,100517.15
2022-09-22T20:26:46.362Z,100517.27
2022-09-22T20:29:16.511Z,100521.08
2022-09-22T20:31:45.591Z,100523.65
2022-09-22T20:34:14.495Z,100525.15
2022-09-22T20:36:42.814Z,100524.05
2022-09-22T20:39:13.213Z,100522.39
2022-09-22T20:41:41.196Z,100523.71
2022-09-22T20:44:14.091Z,100521.35
2022-09-22T20:46:44.364Z,100524.95
2022-09-22T20:49:14.045Z,100521.66
2022-09-22T20:51:41.611Z,100524.02
2022-09-22T20:54:08.868Z,100523.30
2022-09-22T20:56:39.440Z,100527.09
2022-09-22T20:59:09.431Z,100526.69
2022-09-22T21:01:36.875Z,100525.39
2022-09-22T21:04:04.466Z,100525.46
2022-09-22T21:06:31.419Z,100524.02
2022-09-22T21:09:17.018Z,100521.33
2022-09-22T21:11:46.621Z,100518.27
2022-09-22T21:14:14.904Z,100522.45
2022-09-22T21:16:42.572Z,100517.41
2022-09-22T21:19:09.523Z,100513.13
2022-09-22T21:21:37.191Z,100519.36
2022-09-22T21:24:05.479Z,100516.58
2022-09-22T21:26:33.584Z,100519.60
2022-09-22T21:29:01.327Z,100524.73
2022-09-22T21:31:28.370Z,100522.20
2022-09-22T21:33:55.429Z,100521.27
2022-09-22T21:36:22.689Z,100518.92
2022-09-22T21:38:54.672Z,100518.83
2022-09-22T21:41:23.247Z,100518.98
2022-09-22T21:43:50.303Z,100518.77
2022-09-22T21:46:21.405Z,100519.87
2022-09-22T21:48:48.614Z,100520.20
2022-09-22T21:51:18.936Z,100517.02
2022-09-22T21:53:47.940Z,100519.23
2022-09-22T21:56:16.637Z,100517.65
2022-09-22T21:58:47.067Z,100516.05
2022-09-22T22:01:19.390Z,100520.29
2022-09-22T22:03:47.752Z,100523.62
2022-09-22T22:06:28.091Z,100525.88
2022-09-22T22:09:04.052Z,100523.23
2022-09-22T22:11:40.131Z,100523.08
2022-09-22T22:14:08.790Z,100522.27
2022-09-22T22:16:43.855Z,100521.40
2022-09-22T22:19:12.140Z,100521.98
2022-09-22T22:21:43.904Z,100523.40
2022-09-22T22:24:17.827Z,100520.96
2022-09-22T22:26:46.829Z,100519.94
2022-09-22T22:29:13.872Z,100521.17
2022-09-22T22:31:43.054Z,100519.80
2022-09-22T22:34:11.368Z,100516.33
2022-09-22T22:36:38.827Z,100518.76
2022-09-22T22:39:05.985Z,100513.10
2022-09-22T22:41:33.953Z,100511.69
2022-09-22T22:44:01.931Z,100513.52
2022-09-22T22:46:29.646Z,100514.60
2022-09-22T22:48:57.136Z,100509.98
2022-09-22T22:51:24.019Z,100511.98
2022-09-22T22:53:51.421Z,100514.59
2022-09-22T22:56:21.526Z,100512.16
2022-09-22T22:58:50.094Z,100510.13
2022-09-22T23:01:21.823Z,100511.11
2022-09-22T23:03:52.721Z,100513.53
2022-09-22T23:06:24.686Z,100511.72
2022-09-22T23:08:52.046Z,100511.80
2022-09-22T23:11:22.681Z,100511.30
2022-09-22T23:13:53.520Z,100511.16
2022-09-22T23:16:23.140Z,100507.86
2022-09-22T23:18:51.213Z,100505.40
2022-09-22T23:21:20.065Z,100503.30
2022-09-22T23:23:47.376Z,100502.05
2022-09-22T23:26:15.040Z,100498.26
2022-09-22T23:28:42.506Z,100499.97
2022-09-22T23:31:11.781Z,100500.81
2022-09-22T23:33:44.875Z,100500.14
2022-09-22T23:36:19.338Z,100496.80
2022-09-22T23:38:46.898Z,100497.32
2022-09-22T23:41:14.873Z,100496.61
2022-09-22T23:43:42.238Z,100495.33
2022-09-22T23:46:09.728Z,100492.05
2022-09-22T23:48:36.758Z,100488.73
2022-09-22T23:51:03.920Z,100488.74
2022-09-22T23:53:33.362Z,100485.25
2022-09-22T23:56:02.037Z,100488.59
2022-09-22T23:58:29.740Z,100485.27
